Time;durP1;ratioP1;P1;durP2;ratioP2;P2;SDS_P1;SDS_P2;PMS_P1;PMS_P2;Temp;Humidity;BMP_temperature;BMP_pressure;BME280_temperature;BME280_humidity;BME280_pressure;Samples;Min_cycle;Max_cycle;Signal;HPM_P1;HPM_P2
2021/08/24 00:00:28;;;;;;;1.90;1.08;;;;;;;22.30;55.85;102920.75;4940309;29;20035;-74
2021/08/24 00:02:54;;;;;;;1.15;0.60;;;;;;;22.23;55.75;102910.97;4957487;29;20509;-74
2021/08/24 00:05:27;;;;;;;0.82;0.60;;;;;;;22.25;55.73;102911.88;4924593;29;20042;-74
2021/08/24 00:07:56;;;;;;;1.02;0.88;;;;;;;22.25;55.92;102917.16;4957321;29;20050;-75
2021/08/24 00:10:22;;;;;;;0.52;0.50;;;;;;;22.28;55.74;102918.94;4940178;29;20070;-75
2021/08/24 00:12:47;;;;;;;1.38;0.95;;;;;;;22.27;55.72;102914.53;4957416;29;20031;-75
2021/08/24 00:15:14;;;;;;;1.13;0.60;;;;;;;22.29;55.73;102916.34;4957309;29;20118;-75
2021/08/24 00:17:39;;;;;;;1.00;0.60;;;;;;;22.25;55.79;102913.63;4957395;29;20023;-75
2021/08/24 00:20:06;;;;;;;1.58;1.48;;;;;;;22.29;55.84;102926.00;4924428;29;20050;-75
2021/08/24 00:22:31;;;;;;;1.17;0.70;;;;;;;22.27;55.92;102914.53;4939887;29;20072;-75
2021/08/24 00:24:57;;;;;;;1.40;0.80;;;;;;;22.25;55.73;102911.88;4938868;29;20605;-75
2021/08/24 00:27:22;;;;;;;0.77;0.60;;;;;;;22.29;55.93;102921.59;4940182;29;20035;-75
2021/08/24 00:29:47;;;;;;;0.80;0.68;;;;;;;22.22;55.73;102905.69;4923909;29;20118;-75
2021/08/24 00:32:12;;;;;;;0.60;0.60;;;;;;;22.28;55.83;102914.56;4923918;29;20035;-75
2021/08/24 00:34:38;;;;;;;0.98;0.50;;;;;;;22.25;55.79;102914.50;4956891;29;20023;-75
2021/08/24 00:37:03;;;;;;;1.15;0.60;;;;;;;22.26;55.86;102912.75;4923924;29;20059;-75
2021/08/24 00:39:29;;;;;;;1.17;0.80;;;;;;;22.25;55.88;102918.91;4908681;29;20055;-74
2021/08/24 00:41:54;;;;;;;1.05;0.88;;;;;;;22.27;55.88;102918.06;4940617;29;20369;-75
2021/08/24 00:44:19;;;;;;;0.60;0.50;;;;;;;22.24;55.92;102906.59;4940795;29;20403;-74
2021/08/24 00:46:49;;;;;;;1.10;0.82;;;;;;;22.22;55.83;102916.22;4923988;29;20058;-75
2021/08/24 00:49:26;;;;;;;1.55;0.98;;;;;;;22.25;55.92;102913.63;4939850;29;20086;-75
2021/08/24 00:52:01;;;;;;;0.88;0.70;;;;;;;22.26;55.93;102921.56;4956797;29;20034;-75
2021/08/24 00:54:27;;;;;;;1.15;0.55;;;;;;;22.26;55.92;102920.66;4956735;29;20019;-75
2021/08/24 00:57:00;;;;;;;0.75;0.70;;;;;;;22.26;55.87;102925.94;4939696;29;20058;-75
2021/08/24 00:59:26;;;;;;;0.88;0.65;;;;;;;22.26;55.90;102926.81;4956483;29;20030;-74
2021/08/24 01:01:52;;;;;;;0.80;0.70;;;;;;;22.24;55.88;102933.81;4956381;29;20038;-75
2021/08/24 01:04:23;;;;;;;1.20;0.80;;;;;;;22.22;55.98;102913.59;4956157;29;20447;-75
2021/08/24 01:07:00;;;;;;;0.85;0.60;;;;;;;22.26;55.88;102931.22;4956350;29;20031;-74
2021/08/24 01:09:55;;;;;;;0.82;0.60;;;;;;;22.21;55.79;102925.00;4956444;29;20031;-75
2021/08/24 01:12:36;;;;;;;1.52;0.68;;;;;;;22.25;55.90;102932.97;4939351;29;20050;-75
2021/08/24 01:15:19;;;;;;;0.90;0.80;;;;;;;22.25;55.87;102937.34;4956332;29;20027;-75
2021/08/24 01:18:01;;;;;;;1.17;0.82;;;;;;;22.24;55.88;102939.09;4956178;29;20023;-74
2021/08/24 01:20:29;;;;;;;1.00;0.77;;;;;;;22.25;56.00;102939.97;4938845;29;20030;-74
2021/08/24 01:23:17;;;;;;;0.80;0.70;;;;;;;22.24;55.82;102939.09;4955999;29;20035;-74
2021/08/24 01:26:11;;;;;;;1.05;0.85;;;;;;;22.23;55.88;102939.97;4955679;29;20034;-74
2021/08/24 01:28:49;;;;;;;0.80;0.50;;;;;;;22.25;55.94;102948.78;4938887;29;20059;-75
2021/08/24 01:31:26;;;;;;;1.30;1.00;;;;;;;22.24;55.90;102943.47;4955850;29;20045;-74
2021/08/24 01:34:19;;;;;;;1.05;0.70;;;;;;;22.23;55.89;102939.06;4955872;29;20078;-75
2021/08/24 01:36:49;;;;;;;1.42;0.90;;;;;;;22.20;55.94;102936.44;4955577;28;20047;-75
2021/08/24 01:39:29;;;;;;;1.05;0.68;;;;;;;22.18;55.73;102932.88;4939864;29;20511;-74
2021/08/24 01:42:20;;;;;;;1.25;0.90;;;;;;;22.25;55.94;102942.63;4957621;29;20055;-74
2021/08/24 01:44:52;;;;;;;0.98;0.60;;;;;;;22.18;55.98;102931.13;4957481;29;20027;-74
2021/08/24 01:47:37;;;;;;;1.35;0.88;;;;;;;22.24;55.90;102943.47;4957952;29;20027;-75
2021/08/24 01:50:10;;;;;;;0.90;0.70;;;;;;;22.19;56.01;102938.19;4957171;29;20162;-75
2021/08/24 01:52:43;;;;;;;1.02;0.77;;;;;;;22.23;55.94;102946.97;4956185;29;20027;-75
2021/08/24 01:55:16;;;;;;;1.10;0.82;;;;;;;22.21;55.85;102940.81;4938731;29;20031;-75
2021/08/24 01:57:48;;;;;;;1.25;0.75;;;;;;;22.19;55.85;102942.56;4955983;29;20028;-75
2021/08/24 02:00:15;;;;;;;1.50;0.67;;;;;;;22.18;56.01;102948.69;4955587;29;20027;-75
2021/08/24 02:02:52;;;;;;;1.02;0.70;;;;;;;22.15;55.89;102941.63;4938237;29;20031;-75
2021/08/24 02:05:28;;;;;;;1.58;1.13;;;;;;;22.18;56.05;102949.59;4938415;29;20027;-75
2021/08/24 02:07:59;;;;;;;1.40;0.85;;;;;;;22.22;56.00;102959.28;4938405;29;20497;-75
2021/08/24 02:10:25;;;;;;;0.90;0.60;;;;;;;22.21;55.89;102946.97;4938327;29;20038;-75
2021/08/24 02:12:53;;;;;;;1.10;0.82;;;;;;;22.14;55.94;102934.59;4955400;29;20453;-75
2021/08/24 02:15:25;;;;;;;1.17;0.82;;;;;;;22.20;56.00;102949.59;4938400;29;20381;-75
2021/08/24 02:17:51;;;;;;;0.95;0.63;;;;;;;22.21;55.92;102960.13;4955581;29;20489;-75
2021/08/24 02:20:24;;;;;;;1.20;0.75;;;;;;;22.20;55.90;102955.72;4955553;29;20466;-75
2021/08/24 02:22:58;;;;;;;1.08;0.70;;;;;;;22.19;55.96;102959.25;4955529;29;20000;-75
2021/08/24 02:25:29;;;;;;;1.73;1.00;;;;;;;22.17;56.02;102958.34;4955303;29;19911;-75
2021/08/24 02:28:16;;;;;;;1.13;0.88;;;;;;;22.21;56.09;102960.13;4955325;29;20351;-74
2021/08/24 02:30:49;;;;;;;0.93;0.70;;;;;;;22.22;56.04;102961.03;4955311;29;20036;-74
2021/08/24 02:33:16;;;;;;;1.08;0.68;;;;;;;22.16;56.03;102953.06;4955317;29;20437;-75
2021/08/24 02:35:49;;;;;;;1.10;0.93;;;;;;;22.16;56.08;102956.56;4938243;29;20030;-75
2021/08/24 02:38:22;;;;;;;1.17;0.85;;;;;;;22.15;55.91;102944.25;4934939;29;20051;-75
2021/08/24 02:40:59;;;;;;;1.00;0.70;;;;;;;22.16;55.94;102956.56;4936215;29;20001;-75
2021/08/24 02:43:29;;;;;;;1.33;0.77;;;;;;;22.21;56.08;102964.53;4936228;29;20470;-75
2021/08/24 02:46:09;;;;;;;1.35;0.93;;;;;;;22.15;55.91;102948.66;4936041;29;20036;-75
2021/08/24 02:48:38;;;;;;;0.77;0.70;;;;;;;22.15;55.97;102954.81;4936462;29;20508;-75
2021/08/24 02:51:04;;;;;;;1.05;0.75;;;;;;;22.18;56.03;102960.13;4938959;29;20032;-75
2021/08/24 02:53:34;;;;;;;0.73;0.52;;;;;;;22.15;56.27;102954.81;4938434;29;20035;-75
2021/08/24 02:55:59;;;;;;;0.98;0.60;;;;;;;22.19;55.92;102968.91;4939541;29;20533;-75
2021/08/24 02:58:24;;;;;;;1.08;0.70;;;;;;;22.19;55.90;102961.91;4939559;29;19918;-74
2021/08/24 03:00:50;;;;;;;0.82;0.63;;;;;;;22.17;56.02;102954.81;4938376;29;20035;-75
2021/08/24 03:03:17;;;;;;;0.98;0.60;;;;;;;22.19;55.97;102961.00;4922521;29;19982;-75
2021/08/24 03:05:42;;;;;;;1.70;1.38;;;;;;;22.20;56.03;102963.63;4938084;29;20122;-75
2021/08/24 03:08:09;;;;;;;1.08;0.70;;;;;;;22.19;56.04;102961.91;4938174;29;20059;-75
2021/08/24 03:10:38;;;;;;;1.13;0.80;;;;;;;22.18;56.11;102962.75;4939667;29;20367;-74
2021/08/24 03:13:28;;;;;;;1.58;0.77;;;;;;;22.17;56.15;102960.97;4938133;29;20027;-75
2021/08/24 03:16:16;;;;;;;1.02;0.60;;;;;;;22.14;56.03;102949.50;4939114;29;20031;-73
2021/08/24 03:19:08;;;;;;;1.15;0.82;;;;;;;22.17;56.02;102952.19;4937951;29;20027;-73
2021/08/24 03:21:36;;;;;;;1.42;0.70;;;;;;;22.18;56.04;102960.13;4930393;29;20476;-74
2021/08/24 03:24:04;;;;;;;1.42;0.95;;;;;;;22.16;55.88;102961.84;4937811;29;20027;-75
2021/08/24 03:26:34;;;;;;;1.30;0.80;;;;;;;22.18;56.26;102967.16;4937829;29;20019;-75
2021/08/24 03:28:59;;;;;;;1.15;0.70;;;;;;;22.16;56.05;102961.84;4939116;29;20036;-74
2021/08/24 03:31:27;;;;;;;1.15;0.85;;;;;;;22.16;56.06;102961.84;4939065;29;20068;-74
2021/08/24 03:33:53;;;;;;;0.98;0.82;;;;;;;22.16;55.93;102956.56;4937703;29;20030;-74
2021/08/24 03:36:18;;;;;;;0.93;0.65;;;;;;;22.18;55.93;102964.50;4921565;29;20142;-75
2021/08/24 03:38:43;;;;;;;0.90;0.77;;;;;;;22.17;56.00;102957.47;4937388;29;20040;-75
2021/08/24 03:41:11;;;;;;;1.15;0.75;;;;;;;22.17;56.01;102960.09;4937491;29;19938;-75
2021/08/24 03:43:37;;;;;;;1.27;0.80;;;;;;;22.14;56.04;102954.78;4938711;29;20038;-75
2021/08/24 03:46:02;;;;;;;1.50;0.80;;;;;;;22.16;56.06;102959.22;4937503;29;20386;-75
2021/08/24 03:48:28;;;;;;;0.77;0.65;;;;;;;22.16;56.07;102964.47;4921384;29;20043;-75
2021/08/24 03:50:53;;;;;;;0.57;0.50;;;;;;;22.16;56.01;102959.22;4937388;29;19914;-74
2021/08/24 03:53:19;;;;;;;1.02;0.75;;;;;;;22.10;55.90;102941.56;4938746;29;20122;-73
2021/08/24 03:55:44;;;;;;;1.27;0.82;;;;;;;22.16;56.08;102958.31;4938379;29;20262;-73
2021/08/24 03:58:10;;;;;;;1.17;0.90;;;;;;;22.12;55.99;102962.66;4938557;29;20047;-73
2021/08/24 04:00:35;;;;;;;1.65;1.02;;;;;;;22.13;56.14;102959.16;4938210;29;20467;-73
2021/08/24 04:03:00;;;;;;;0.90;0.68;;;;;;;22.16;56.04;102969.75;4921393;29;20028;-73
2021/08/24 04:05:26;;;;;;;1.10;0.70;;;;;;;22.16;56.14;102980.28;4938195;29;19922;-73
2021/08/24 04:07:53;;;;;;;0.93;0.63;;;;;;;22.16;55.99;102975.03;4939499;29;19917;-73
2021/08/24 04:10:19;;;;;;;1.63;0.80;;;;;;;22.15;56.12;102975.00;4937287;29;20032;-73
2021/08/24 04:12:44;;;;;;;0.77;0.60;;;;;;;22.12;56.17;102975.84;4938517;29;20522;-73
2021/08/24 04:15:10;;;;;;;1.23;0.82;;;;;;;22.12;55.93;102972.31;4938183;29;20039;-73
2021/08/24 04:17:38;;;;;;;0.63;0.50;;;;;;;22.12;56.23;102975.84;4936907;29;20054;-73
2021/08/24 04:20:04;;;;;;;1.00;0.70;;;;;;;22.12;56.11;102972.31;4938073;29;19914;-73
2021/08/24 04:22:30;;;;;;;1.00;0.70;;;;;;;22.14;56.06;102981.13;4920993;29;20039;-73
2021/08/24 04:24:55;;;;;;;1.15;0.82;;;;;;;22.15;56.14;102975.88;4938194;29;20032;-73
2021/08/24 04:27:21;;;;;;;0.85;0.68;;;;;;;22.10;56.06;102972.28;4936749;29;20035;-73
2021/08/24 04:29:46;;;;;;;1.25;0.75;;;;;;;22.14;56.15;102981.13;4936779;29;20381;-73
2021/08/24 04:32:17;;;;;;;1.33;0.77;;;;;;;22.08;56.15;102979.28;4937611;29;20035;-73
2021/08/24 04:34:42;;;;;;;1.48;1.10;;;;;;;22.13;55.97;102988.16;4936525;29;20119;-73
2021/08/24 04:37:08;;;;;;;0.80;0.68;;;;;;;22.14;56.17;102992.56;4920531;29;20139;-73
2021/08/24 04:39:33;;;;;;;0.80;0.80;;;;;;;22.15;56.23;102990.81;4920790;29;20062;-73
2021/08/24 04:41:59;;;;;;;1.30;0.90;;;;;;;22.09;56.04;102981.06;4937507;29;20039;-73
2021/08/24 04:44:24;;;;;;;1.10;0.80;;;;;;;22.13;56.22;103001.31;4937641;29;20028;-73
2021/08/24 04:46:49;;;;;;;0.98;0.70;;;;;;;22.13;56.29;102990.78;4920111;29;20451;-73
2021/08/24 04:49:15;;;;;;;0.90;0.70;;;;;;;22.11;56.11;102992.50;4937630;29;20028;-73
2021/08/24 04:51:40;;;;;;;1.33;0.95;;;;;;;22.13;56.09;102998.69;4920680;29;20390;-74
2021/08/24 04:54:06;;;;;;;1.00;0.88;;;;;;;22.06;56.12;102992.47;4920557;29;20042;-75
2021/08/24 04:56:31;;;;;;;1.45;0.90;;;;;;;22.04;56.20;102978.38;4938546;29;20028;-75
2021/08/24 04:58:56;;;;;;;0.93;0.82;;;;;;;22.11;56.02;103000.41;4938841;29;20028;-75
2021/08/24 05:01:22;;;;;;;1.75;1.15;;;;;;;22.12;56.15;102999.56;4921173;29;20481;-75
2021/08/24 05:03:47;;;;;;;2.78;0.82;;;;;;;22.12;56.23;102998.66;4921525;29;20074;-75
2021/08/24 05:06:12;;;;;;;0.52;0.52;;;;;;;22.09;56.11;102991.59;4922206;29;20036;-75
2021/08/24 05:08:38;;;;;;;0.98;0.70;;;;;;;22.13;55.92;102995.16;4936454;29;20490;-75
2021/08/24 05:11:03;;;;;;;1.23;0.80;;;;;;;22.13;56.10;102998.69;4919890;29;20098;-75
2021/08/24 05:13:28;;;;;;;0.88;0.65;;;;;;;22.14;56.03;102989.03;4920101;29;20030;-74
2021/08/24 05:15:54;;;;;;;2.17;1.00;;;;;;;22.14;56.17;102992.56;4935848;29;20391;-74
2021/08/24 05:18:19;;;;;;;1.73;1.02;;;;;;;22.15;56.07;102998.72;4936855;29;20063;-74
2021/08/24 05:20:45;;;;;;;0.90;0.70;;;;;;;22.14;56.04;103002.22;4935781;29;20031;-75
2021/08/24 05:23:10;;;;;;;2.10;0.95;;;;;;;22.11;56.05;102997.78;4935552;29;20399;-75
2021/08/24 05:25:37;;;;;;;1.92;0.90;;;;;;;22.15;55.99;103004.00;4937127;29;20047;-74
2021/08/24 05:28:04;;;;;;;0.70;0.60;;;;;;;22.14;56.10;103003.09;4937072;29;20036;-75
2021/08/24 05:30:29;;;;;;;1.00;0.70;;;;;;;22.14;56.07;103002.22;4919828;29;20031;-74
2021/08/24 05:32:55;;;;;;;0.98;0.70;;;;;;;22.14;56.00;103002.22;4936973;29;20031;-74
2021/08/24 05:35:21;;;;;;;1.20;0.98;;;;;;;22.14;56.00;103002.22;4935876;29;20370;-75
2021/08/24 05:37:47;;;;;;;0.80;0.77;;;;;;;22.14;55.94;103000.47;4919722;29;20068;-75
2021/08/24 05:40:13;;;;;;;1.30;0.85;;;;;;;22.14;56.32;103000.47;4936935;29;20039;-75
2021/08/24 05:42:39;;;;;;;1.17;0.70;;;;;;;22.16;56.13;103004.00;4919950;29;20031;-75
2021/08/24 05:45:06;;;;;;;1.17;0.82;;;;;;;22.16;56.33;103003.13;4935892;29;20127;-75
2021/08/24 05:47:32;;;;;;;1.15;0.70;;;;;;;22.16;56.10;103011.03;4936101;29;20055;-74
2021/08/24 05:49:59;;;;;;;1.40;0.80;;;;;;;22.19;56.05;103014.59;4938492;29;20039;-75
2021/08/24 05:52:25;;;;;;;1.30;0.88;;;;;;;22.15;55.97;103004.88;4937652;29;20039;-74
2021/08/24 05:54:50;;;;;;;1.27;0.70;;;;;;;22.20;56.03;103007.59;4935979;29;20033;-75
2021/08/24 05:57:17;;;;;;;1.38;0.70;;;;;;;22.15;55.96;103007.50;4936933;29;19914;-75
2021/08/24 05:59:42;;;;;;;1.02;0.70;;;;;;;22.19;56.00;103017.25;4935425;29;19911;-75
2021/08/24 06:02:08;;;;;;;0.75;0.60;;;;;;;22.18;55.88;103014.56;4935285;29;20118;-74
2021/08/24 06:04:34;;;;;;;1.60;1.02;;;;;;;22.22;55.91;103017.25;4919308;29;19919;-74
2021/08/24 06:07:00;;;;;;;1.02;0.80;;;;;;;22.19;55.92;103017.25;4919521;29;20032;-75
2021/08/24 06:09:26;;;;;;;0.93;0.70;;;;;;;22.22;55.84;103019.88;4935470;29;20082;-74
2021/08/24 06:11:52;;;;;;;2.25;1.15;;;;;;;22.29;55.88;103034.06;4936662;29;20024;-74
2021/08/24 06:14:20;;;;;;;1.90;0.80;;;;;;;22.32;55.78;103031.47;4936241;29;20358;-74
2021/08/24 06:16:47;;;;;;;0.90;0.80;;;;;;;22.29;55.79;103029.66;4936503;29;20042;-75
2021/08/24 06:19:13;;;;;;;1.15;0.70;;;;;;;22.35;55.93;103026.22;4936443;29;20050;-74
2021/08/24 06:21:39;;;;;;;0.98;0.80;;;;;;;22.34;55.61;103027.06;4935658;29;20470;-74
2021/08/24 06:24:07;;;;;;;1.17;0.75;;;;;;;22.40;55.78;103032.44;4939163;29;20043;-74
2021/08/24 06:26:33;;;;;;;1.27;1.00;;;;;;;22.43;55.58;103037.78;4940257;29;20042;-75
2021/08/24 06:28:58;;;;;;;1.83;0.95;;;;;;;22.44;55.53;103032.53;4939020;29;20027;-74
2021/08/24 06:31:27;;;;;;;1.53;0.90;;;;;;;22.46;55.52;103036.03;4940075;29;20466;-75
2021/08/24 06:33:54;;;;;;;1.20;0.77;;;;;;;22.47;55.53;103036.91;4938610;29;20032;-74
2021/08/24 06:36:21;;;;;;;1.67;0.97;;;;;;;22.47;55.45;103034.28;4927325;29;20050;-75
2021/08/24 06:38:47;;;;;;;0.95;0.70;;;;;;;22.48;55.48;103035.16;4926320;29;20047;-75
2021/08/24 06:41:14;;;;;;;0.98;0.70;;;;;;;22.54;55.43;103044.06;4941899;29;20035;-75
2021/08/24 06:43:39;;;;;;;1.25;0.80;;;;;;;22.53;55.43;103031.75;4941741;29;20481;-75
2021/08/24 06:46:05;;;;;;;0.60;0.60;;;;;;;22.57;55.43;103033.56;4941848;29;20035;-75
2021/08/24 06:48:31;;;;;;;1.25;0.85;;;;;;;22.56;55.34;103031.78;4942113;29;20399;-75
2021/08/24 06:50:56;;;;;;;1.27;0.93;;;;;;;22.60;55.27;103030.94;4925920;29;20058;-75
2021/08/24 06:53:23;;;;;;;0.88;0.63;;;;;;;22.55;55.34;103027.38;4926198;29;19914;-75
2021/08/24 06:55:48;;;;;;;1.85;1.25;;;;;;;22.62;55.33;103038.88;4959051;29;19910;-74
2021/08/24 06:58:14;;;;;;;1.30;0.90;;;;;;;22.57;55.31;103024.75;4958936;29;20106;-75
2021/08/24 07:00:40;;;;;;;1.20;0.70;;;;;;;22.64;55.37;103037.16;4959088;29;19910;-75
2021/08/24 07:03:06;;;;;;;0.97;0.60;;;;;;;22.65;55.16;103039.81;4925697;29;20043;-74
2021/08/24 07:05:33;;;;;;;2.17;0.60;;;;;;;22.64;55.21;103043.31;4925720;29;19923;-74
2021/08/24 07:07:59;;;;;;;1.48;1.05;;;;;;;22.67;55.66;103047.75;4958641;29;20426;-74
2021/08/24 07:10:26;;;;;;;0.80;0.67;;;;;;;22.57;55.52;103036.19;4941402;29;20074;-75
2021/08/24 07:12:51;;;;;;;1.10;0.90;;;;;;;22.57;55.67;103046.75;4958700;29;20498;-75
2021/08/24 07:15:20;;;;;;;1.10;0.90;;;;;;;22.57;55.75;103048.50;4958515;29;19911;-75
2021/08/24 07:17:47;;;;;;;1.90;1.20;;;;;;;22.56;56.19;103049.34;4958303;29;20404;-75
2021/08/24 07:20:14;;;;;;;1.30;1.00;;;;;;;22.53;55.75;103047.56;4958348;29;20054;-75
2021/08/24 07:22:40;;;;;;;0.85;0.60;;;;;;;22.54;55.50;103035.25;4958592;29;20034;-75
2021/08/24 07:25:09;;;;;;;1.20;0.80;;;;;;;22.56;55.99;103041.44;4941089;29;20097;-74
2021/08/24 07:27:34;;;;;;;1.95;0.80;;;;;;;22.62;55.68;103052.06;4958304;29;20042;-74
2021/08/24 07:29:59;;;;;;;0.70;0.60;;;;;;;22.60;55.63;103051.16;4958480;29;20061;-75
2021/08/24 07:32:25;;;;;;;0.90;0.70;;;;;;;22.59;55.84;103049.41;4958171;29;20119;-74
2021/08/24 07:34:51;;;;;;;1.20;0.70;;;;;;;22.58;55.82;103048.53;4924619;29;20032;-75
2021/08/24 07:37:16;;;;;;;1.92;1.05;;;;;;;22.55;55.70;103053.75;4940913;29;20512;-75
2021/08/24 07:39:43;;;;;;;2.30;1.05;;;;;;;22.56;55.84;103058.16;4909337;29;20115;-75
2021/08/24 07:42:08;;;;;;;1.40;1.00;;;;;;;22.56;55.69;103054.63;4941553;29;20533;-75
2021/08/24 07:44:34;;;;;;;1.58;0.88;;;;;;;22.53;55.91;103051.94;4958116;29;19918;-74
2021/08/24 07:47:00;;;;;;;1.02;0.75;;;;;;;22.56;55.82;103060.78;4924997;29;20258;-75
2021/08/24 07:49:27;;;;;;;1.30;0.90;;;;;;;22.52;55.91;103052.81;4940647;29;19917;-75
2021/08/24 07:51:54;;;;;;;0.95;0.85;;;;;;;22.56;55.82;103057.28;4958155;29;20486;-75
2021/08/24 07:54:22;;;;;;;1.02;0.75;;;;;;;22.52;55.94;103052.81;4909486;29;20058;-75
2021/08/24 07:56:48;;;;;;;1.48;0.75;;;;;;;22.55;55.88;103053.75;4924806;29;20034;-75
2021/08/24 07:59:14;;;;;;;1.27;0.85;;;;;;;22.53;55.88;103049.31;4940758;29;20035;-75
2021/08/24 08:01:39;;;;;;;1.08;0.85;;;;;;;22.56;55.82;103050.25;4940483;29;20086;-74
2021/08/24 08:04:04;;;;;;;1.35;0.90;;;;;;;22.57;55.86;103059.03;4957282;29;20073;-74
2021/08/24 08:06:30;;;;;;;1.48;0.82;;;;;;;22.60;55.86;103059.06;4940352;29;20515;-74
2021/08/24 08:08:55;;;;;;;1.17;0.70;;;;;;;22.64;55.63;103068.78;4957300;29;20066;-75
2021/08/24 08:11:20;;;;;;;1.10;0.82;;;;;;;22.62;55.36;103060.84;4958365;29;19926;-75
2021/08/24 08:13:46;;;;;;;1.40;0.80;;;;;;;22.69;55.54;103061.84;4941547;29;20506;-75
2021/08/24 08:16:11;;;;;;;1.23;0.70;;;;;;;22.65;55.28;103050.34;4925017;29;20385;-74
2021/08/24 08:18:37;;;;;;;1.23;0.70;;;;;;;22.76;55.47;103066.34;4940746;29;20019;-75
2021/08/24 08:21:02;;;;;;;1.00;0.70;;;;;;;22.73;55.45;103068.91;4941472;29;19922;-74
2021/08/24 08:23:28;;;;;;;1.20;0.80;;;;;;;22.71;55.57;103065.38;4925150;29;20426;-75
2021/08/24 08:25:54;;;;;;;2.15;1.10;;;;;;;22.73;55.49;103069.78;4957519;29;19918;-75
2021/08/24 08:28:19;;;;;;;0.93;0.70;;;;;;;22.77;55.31;103066.38;4957145;29;20470;-74
2021/08/24 08:30:46;;;;;;;1.60;1.15;;;;;;;22.72;55.43;103072.44;4940231;29;20034;-75
2021/08/24 08:33:13;;;;;;;0.80;0.60;;;;;;;22.64;55.47;103063.53;4939830;29;20019;-74
2021/08/24 08:35:39;;;;;;;1.10;0.82;;;;;;;22.68;55.68;103084.69;4939889;29;20106;-75
2021/08/24 08:38:05;;;;;;;1.20;0.80;;;;;;;22.58;55.74;103069.63;4956821;29;20581;-76
2021/08/24 08:40:51;;;;;;;1.50;0.80;;;;;;;22.68;55.57;103095.25;4957102;29;20039;-75
2021/08/24 08:43:49;;;;;;;0.88;0.70;;;;;;;22.69;55.59;103086.47;4956784;29;20540;-74
2021/08/24 08:46:23;;;;;;;1.27;0.90;;;;;;;22.76;55.53;103085.69;4938917;28;20071;-74
2021/08/24 08:49:10;;;;;;;1.23;0.90;;;;;;;22.77;55.28;103090.09;4956860;29;20030;-75
2021/08/24 08:51:55;;;;;;;1.60;0.90;;;;;;;22.79;55.21;103077.81;4956813;29;20431;-75
2021/08/24 08:54:37;;;;;;;1.40;0.90;;;;;;;22.83;55.22;103080.50;4956644;29;20078;-74
2021/08/24 08:57:09;;;;;;;1.15;0.98;;;;;;;22.70;55.39;103074.16;4939475;29;20165;-75
2021/08/24 08:59:46;;;;;;;1.85;1.30;;;;;;;22.66;55.37;103073.22;4956741;29;20019;-74
2021/08/24 09:02:44;;;;;;;1.48;0.95;;;;;;;22.74;55.44;103078.59;4956663;29;20027;-75
2021/08/24 09:05:10;;;;;;;1.23;0.75;;;;;;;22.77;55.34;103083.94;4956549;29;20382;-74
2021/08/24 09:07:49;;;;;;;1.85;1.13;;;;;;;22.74;55.60;103078.59;4939546;29;20057;-74
2021/08/24 09:10:29;;;;;;;0.95;0.70;;;;;;;22.76;55.36;103074.25;4957054;29;20036;-73
2021/08/24 09:12:59;;;;;;;0.95;0.77;;;;;;;22.75;55.37;103073.34;4956721;29;20070;-73
2021/08/24 09:15:45;;;;;;;1.48;0.90;;;;;;;22.76;55.29;103072.50;4956346;29;20478;-73
2021/08/24 09:18:17;;;;;;;1.27;0.73;;;;;;;22.75;55.30;103062.78;4939026;29;20027;-73
2021/08/24 09:21:10;;;;;;;1.10;0.80;;;;;;;22.77;55.23;103071.66;4956326;29;20066;-73
2021/08/24 09:23:36;;;;;;;1.35;0.95;;;;;;;22.76;55.10;103066.34;4952124;29;19922;-73
2021/08/24 09:26:18;;;;;;;1.35;0.80;;;;;;;22.77;55.34;103074.28;4955990;29;20027;-73
2021/08/24 09:28:45;;;;;;;1.17;0.77;;;;;;;22.78;55.22;103075.16;4955867;29;20077;-73
2021/08/24 09:31:19;;;;;;;1.13;0.85;;;;;;;22.76;55.14;103071.63;4938707;29;20031;-73
2021/08/24 09:33:45;;;;;;;1.08;0.77;;;;;;;22.77;55.28;103076.03;4955874;29;20102;-73
2021/08/24 09:36:10;;;;;;;1.45;1.00;;;;;;;22.73;55.18;103072.44;4955723;29;20594;-73
2021/08/24 09:38:52;;;;;;;1.33;0.93;;;;;;;22.74;55.23;103079.47;4938638;29;20038;-73
2021/08/24 09:41:28;;;;;;;1.50;0.80;;;;;;;22.70;55.44;103072.41;4955713;29;20042;-73
2021/08/24 09:43:57;;;;;;;1.42;0.70;;;;;;;22.71;55.39;103079.47;4937764;29;20039;-73
2021/08/24 09:46:35;;;;;;;1.77;0.93;;;;;;;22.65;55.28;103062.66;4938637;29;20031;-73
2021/08/24 09:49:01;;;;;;;2.30;1.38;;;;;;;22.72;55.33;103080.34;4938790;29;20041;-73
2021/08/24 09:51:36;;;;;;;1.20;0.50;;;;;;;22.67;55.39;103071.47;4938580;29;20353;-73
2021/08/24 09:54:12;;;;;;;0.95;0.60;;;;;;;22.76;55.37;103076.91;4955843;29;20397;-74
2021/08/24 09:56:48;;;;;;;1.00;0.67;;;;;;;22.64;55.61;103063.53;4938170;29;19950;-74
2021/08/24 09:59:32;;;;;;;1.13;0.73;;;;;;;22.67;55.24;103069.72;4938401;29;20390;-74
2021/08/24 10:01:58;;;;;;;1.50;0.73;;;;;;;22.64;55.39;103064.41;4955490;29;20023;-73
2021/08/24 10:04:23;;;;;;;1.15;0.90;;;;;;;22.73;55.17;103068.91;4938549;29;20054;-73
2021/08/24 10:06:59;;;;;;;1.15;0.75;;;;;;;22.71;55.21;103058.38;4955510;29;20085;-73
2021/08/24 10:09:33;;;;;;;2.53;1.02;;;;;;;22.74;55.35;103063.66;4955637;29;20035;-73
2021/08/24 10:12:17;;;;;;;;;;;;;;;22.75;55.20;103057.50;4938436;29;20361;-73
2021/08/24 10:14:42;;;;;;;2.13;0.70;;;;;;;22.74;55.23;103054.84;4938464;29;19910;-73
2021/08/24 10:17:22;;;;;;;1.13;0.88;;;;;;;22.70;55.27;103047.78;4938269;29;20027;-73
2021/08/24 10:19:48;;;;;;;1.23;0.77;;;;;;;22.66;55.17;103041.59;4955456;29;20032;-73
2021/08/24 10:22:31;;;;;;;1.13;1.02;;;;;;;22.73;55.06;103050.44;4922367;29;20061;-73
2021/08/24 10:25:10;;;;;;;0.90;0.70;;;;;;;22.72;55.32;103056.59;4955472;29;20043;-73
2021/08/24 10:27:55;;;;;;;1.08;0.70;;;;;;;22.66;55.10;103056.50;4938081;29;20050;-73
2021/08/24 10:30:43;;;;;;;2.13;0.95;;;;;;;22.66;55.34;103052.13;4938083;29;20038;-73
2021/08/24 10:33:40;;;;;;;1.23;0.98;;;;;;;22.69;55.32;103038.09;4955097;29;20023;-73
2021/08/24 10:36:31;;;;;;;1.48;0.70;;;;;;;22.71;55.20;103049.56;4954002;29;20035;-74
2021/08/24 10:39:02;;;;;;;1.52;0.98;;;;;;;22.70;55.14;103042.50;4955250;29;20027;-73
2021/08/24 10:41:35;;;;;;;1.60;1.00;;;;;;;22.66;55.27;103030.16;4955458;29;19911;-73
2021/08/24 10:44:13;;;;;;;1.13;0.70;;;;;;;22.70;55.18;103038.13;4937973;29;20031;-73
2021/08/24 10:47:04;;;;;;;0.70;0.50;;;;;;;22.72;55.14;103040.78;4955179;29;20571;-73
2021/08/24 10:49:30;;;;;;;1.38;1.00;;;;;;;22.70;55.19;103030.22;4937999;29;20038;-73
2021/08/24 10:52:21;;;;;;;1.37;0.93;;;;;;;22.72;55.19;103030.22;4938007;29;20422;-73
2021/08/24 10:55:08;;;;;;;1.30;0.90;;;;;;;22.73;55.14;103029.34;4955217;29;20072;-73
2021/08/24 10:58:00;;;;;;;1.20;0.90;;;;;;;22.73;55.25;103034.59;4955391;29;20008;-73
2021/08/24 11:00:38;;;;;;;1.30;0.80;;;;;;;22.70;55.14;103031.97;4937880;29;20279;-73
2021/08/24 11:03:25;;;;;;;1.45;1.00;;;;;;;22.69;55.29;103033.72;4937907;29;20066;-73
2021/08/24 11:05:55;;;;;;;0.80;0.70;;;;;;;22.71;54.99;103026.72;4937716;29;20086;-73
2021/08/24 11:08:20;;;;;;;1.15;0.80;;;;;;;22.73;55.22;103029.34;4937844;29;20497;-74
2021/08/24 11:10:53;;;;;;;0.82;0.70;;;;;;;22.71;55.12;103024.06;4958539;29;19914;-75
2021/08/24 11:13:47;;;;;;;0.87;0.63;;;;;;;22.73;54.84;103029.34;4941309;29;20035;-74
2021/08/24 11:16:30;;;;;;;1.02;0.70;;;;;;;22.74;55.05;103023.19;4958336;29;20496;-74
2021/08/24 11:19:21;;;;;;;1.08;0.70;;;;;;;22.67;55.00;103010.81;4958367;29;20027;-74
2021/08/24 11:22:02;;;;;;;1.05;0.55;;;;;;;22.65;55.16;103010.78;4941263;29;20042;-74
2021/08/24 11:24:40;;;;;;;1.35;0.80;;;;;;;22.70;55.17;103017.03;4942770;29;20285;-74
2021/08/24 11:27:18;;;;;;;1.63;0.95;;;;;;;22.72;55.09;103015.25;4944770;29;19910;-74
2021/08/24 11:30:13;;;;;;;1.45;1.10;;;;;;;22.69;55.00;103009.09;4944958;29;19914;-73
2021/08/24 11:32:41;;;;;;;0.80;0.60;;;;;;;22.72;54.99;103011.78;4958678;29;20074;-75
2021/08/24 11:35:24;;;;;;;1.30;0.80;;;;;;;22.73;54.92;103014.41;4944122;29;20072;-75
2021/08/24 11:37:55;;;;;;;1.15;0.77;;;;;;;22.64;54.83;102992.31;4959635;29;20051;-75
2021/08/24 11:40:32;;;;;;;0.90;0.63;;;;;;;22.71;55.06;103010.00;4959685;29;20109;-74